Agua Branca, Brazil
Current Conditions -  °F | °C
As of 5:00 AM on Monday 20 Oct 2014 (Local Time) from SBTE Reporting Station
Few Clouds Few Clouds  
Wind Chill: 79°   Ceiling: Unl
Heat Index: 82°   Visibility: 6mi
Dew Point: 73°   Wind: 3mph
Humidity: 83%   Direction: 340°NNW
Pressure: 29.83"   Gusts: NA
Location:  5.89°S, 42.64°W
Report Text: SBTE 200800Z 34003KT 9999 FEW015 26/23 Q1010
Loading
Personal Weather Stations






























Interactive Weather Map
Tropical Storm Tracking
New forecast layout! Learn more

10-Day Weather Forecast

Advertisements
Track Severe Weather on mobile